createdAt,value
2023-10-06T00:00:49.323Z,82.00
2023-10-06T00:03:18.836Z,81.90
2023-10-06T00:05:49.798Z,81.80
2023-10-06T00:08:19.254Z,81.90
2023-10-06T00:10:55.899Z,82.10
2023-10-06T00:13:34.953Z,82.30
2023-10-06T00:16:06.647Z,82.40
2023-10-06T00:18:39.671Z,82.60
2023-10-06T00:21:16.331Z,82.90
2023-10-06T00:23:46.078Z,82.90
2023-10-06T00:26:18.045Z,83.10
2023-10-06T00:28:51.184Z,83.30
2023-10-06T00:31:20.496Z,83.50
2023-10-06T00:33:51.533Z,83.50
2023-10-06T00:36:30.251Z,83.50
2023-10-06T00:39:00.110Z,83.50
2023-10-06T00:41:29.720Z,83.60
2023-10-06T00:43:58.959Z,83.50
2023-10-06T00:46:28.662Z,83.40
2023-10-06T00:49:00.638Z,83.30
2023-10-06T00:51:30.083Z,83.40
2023-10-06T00:54:01.225Z,83.20
2023-10-06T00:56:32.818Z,83.10
2023-10-06T00:59:09.314Z,83.20
2023-10-06T01:01:38.933Z,83.20
2023-10-06T01:04:17.716Z,83.50
2023-10-06T01:06:46.938Z,83.60
2023-10-06T01:09:18.598Z,83.70
2023-10-06T01:11:52.749Z,83.60
2023-10-06T01:14:27.600Z,83.60
2023-10-06T01:17:10.553Z,83.60
2023-10-06T01:19:48.674Z,83.80
2023-10-06T01:22:42.810Z,83.80
2023-10-06T01:25:22.287Z,83.90
2023-10-06T01:27:51.740Z,84.10
2023-10-06T01:30:20.987Z,84.20
2023-10-06T01:32:51.870Z,84.20
2023-10-06T01:35:28.189Z,84.20
2023-10-06T01:38:01.679Z,84.20
2023-10-06T01:40:31.139Z,84.10
2023-10-06T01:43:00.340Z,84.30
2023-10-06T01:45:29.909Z,84.30
2023-10-06T01:48:11.427Z,84.40
2023-10-06T01:50:41.336Z,84.40
2023-10-06T01:53:19.970Z,84.40
2023-10-06T01:55:53.088Z,84.40
2023-10-06T01:58:22.743Z,84.50
2023-10-06T02:00:52.052Z,84.60
2023-10-06T02:03:24.830Z,84.60
2023-10-06T02:06:01.050Z,84.70
2023-10-06T02:08:31.898Z,84.70
2023-10-06T02:11:03.021Z,84.60
2023-10-06T02:13:32.885Z,84.70
2023-10-06T02:16:04.816Z,84.70
2023-10-06T02:18:37.906Z,84.80
2023-10-06T02:21:23.525Z,84.70
2023-10-06T02:23:52.930Z,85.40
2023-10-06T02:26:22.096Z,84.70
2023-10-06T02:28:51.826Z,84.90
2023-10-06T02:31:23.246Z,84.90
2023-10-06T02:33:53.295Z,84.90
2023-10-06T02:36:23.147Z,84.90
2023-10-06T02:38:53.485Z,84.90
2023-10-06T02:41:30.868Z,85.00
2023-10-06T02:44:09.942Z,84.90
2023-10-06T02:46:41.191Z,85.00
2023-10-06T02:49:10.972Z,85.10
2023-10-06T02:51:49.760Z,85.10
2023-10-06T02:54:18.971Z,85.10
2023-10-06T02:56:51.520Z,85.10
2023-10-06T02:59:23.619Z,85.20
2023-10-06T03:02:00.989Z,85.30
2023-10-06T03:04:30.364Z,85.40
2023-10-06T03:07:02.763Z,85.40
2023-10-06T03:09:38.475Z,85.60
2023-10-06T03:12:23.932Z,85.60
2023-10-06T03:15:02.406Z,85.60
2023-10-06T03:17:35.582Z,85.60
2023-10-06T03:20:13.763Z,85.60
2023-10-06T03:22:49.618Z,85.60
2023-10-06T03:25:19.413Z,85.50
2023-10-06T03:27:56.077Z,85.50
2023-10-06T03:30:30.062Z,85.50
2023-10-06T03:32:59.848Z,85.60
2023-10-06T03:35:46.371Z,85.50
2023-10-06T03:38:16.873Z,85.50
2023-10-06T03:40:58.582Z,85.40
2023-10-06T03:43:46.413Z,85.50
2023-10-06T03:46:20.113Z,85.40
2023-10-06T03:48:49.836Z,85.50
2023-10-06T03:51:21.288Z,85.60
2023-10-06T03:53:50.573Z,85.60
2023-10-06T03:56:20.362Z,85.60
2023-10-06T03:58:50.176Z,85.50
2023-10-06T04:01:27.664Z,85.50
2023-10-06T04:03:59.931Z,85.50
2023-10-06T04:06:29.716Z,85.50
2023-10-06T04:09:00.729Z,85.70
2023-10-06T04:11:33.057Z,85.70
2023-10-06T04:14:02.514Z,85.60
2023-10-06T04:16:33.104Z,85.60
2023-10-06T04:19:04.580Z,85.80
2023-10-06T04:21:35.642Z,85.90
2023-10-06T04:24:05.357Z,85.90
2023-10-06T04:26:34.549Z,86.00
2023-10-06T04:29:05.590Z,86.00
2023-10-06T04:31:34.833Z,86.20
2023-10-06T04:34:04.041Z,86.20
2023-10-06T04:36:33.552Z,86.20
2023-10-06T04:39:02.834Z,86.40
2023-10-06T04:41:32.037Z,86.40
2023-10-06T04:44:03.620Z,86.60
2023-10-06T04:46:32.898Z,86.70
2023-10-06T04:49:02.576Z,86.70
2023-10-06T04:51:31.777Z,86.70
2023-10-06T04:54:03.875Z,86.70
2023-10-06T04:56:33.968Z,86.90
2023-10-06T04:59:03.377Z,87.00
2023-10-06T05:01:32.787Z,87.00
2023-10-06T05:04:07.069Z,87.10
2023-10-06T05:06:37.114Z,87.10
2023-10-06T05:09:07.916Z,87.30
2023-10-06T05:11:39.558Z,87.20
2023-10-06T05:14:10.325Z,87.40
2023-10-06T05:16:39.908Z,87.30
2023-10-06T05:19:09.632Z,87.30
2023-10-06T05:21:40.568Z,87.30
2023-10-06T05:24:10.094Z,87.20
2023-10-06T05:26:39.320Z,87.20
2023-10-06T05:29:11.136Z,87.10
2023-10-06T05:31:41.644Z,87.00
2023-10-06T05:34:11.906Z,87.00
2023-10-06T05:36:41.100Z,86.70
2023-10-06T05:39:13.048Z,86.60
2023-10-06T05:41:45.511Z,86.60
2023-10-06T05:44:15.191Z,86.50
2023-10-06T05:46:44.526Z,86.30
2023-10-06T05:49:13.905Z,85.70
2023-10-06T05:51:45.029Z,85.30
2023-10-06T05:54:22.952Z,84.90
2023-10-06T05:56:54.853Z,84.50
2023-10-06T05:59:24.459Z,84.00
2023-10-06T06:02:01.834Z,83.40
2023-10-06T06:04:31.764Z,82.80
2023-10-06T06:07:04.164Z,82.00
2023-10-06T06:09:34.936Z,81.50
2023-10-06T06:12:04.412Z,81.10
2023-10-06T06:14:34.719Z,81.00
2023-10-06T06:17:04.134Z,81.00
2023-10-06T06:19:33.426Z,80.50
2023-10-06T06:22:07.178Z,80.20
2023-10-06T06:24:39.196Z,80.20
2023-10-06T06:27:10.865Z,80.50
2023-10-06T06:29:40.795Z,79.50
2023-10-06T06:32:15.383Z,79.10
2023-10-06T06:34:44.837Z,78.60
2023-10-06T06:37:14.374Z,78.60
2023-10-06T06:39:45.895Z,78.20
2023-10-06T06:42:15.526Z,77.80
2023-10-06T06:44:49.418Z,77.50
2023-10-06T06:47:19.280Z,77.20
2023-10-06T06:49:49.748Z,77.10
2023-10-06T06:52:23.262Z,76.60
2023-10-06T06:54:52.708Z,76.00
2023-10-06T06:57:22.609Z,75.70
2023-10-06T06:59:52.029Z,75.40
2023-10-06T07:02:21.634Z,75.00
2023-10-06T07:04:51.008Z,74.70
2023-10-06T07:07:20.272Z,74.40
2023-10-06T07:09:49.447Z,74.60
2023-10-06T07:12:19.756Z,73.70
2023-10-06T07:14:49.522Z,73.40
2023-10-06T07:17:18.828Z,73.10
2023-10-06T07:19:49.972Z,72.90
2023-10-06T07:22:19.788Z,72.70
2023-10-06T07:24:50.888Z,72.40
2023-10-06T07:27:20.107Z,72.20
2023-10-06T07:29:53.671Z,71.90
2023-10-06T07:32:23.031Z,71.40
2023-10-06T07:34:54.329Z,71.30
2023-10-06T07:37:23.658Z,71.20
2023-10-06T07:39:52.974Z,70.70
2023-10-06T07:42:22.172Z,70.40
2023-10-06T07:44:51.388Z,70.00
2023-10-06T07:47:25.667Z,69.90
2023-10-06T07:49:56.481Z,69.60
2023-10-06T07:52:25.665Z,69.20
2023-10-06T07:54:54.879Z,68.80
2023-10-06T07:57:24.125Z,68.70
2023-10-06T07:59:53.373Z,68.50
2023-10-06T08:02:22.692Z,68.20
2023-10-06T08:04:52.818Z,68.10
2023-10-06T08:07:27.828Z,67.80
2023-10-06T08:10:01.356Z,67.30
2023-10-06T08:12:35.072Z,66.90
2023-10-06T08:15:10.746Z,66.60
2023-10-06T08:17:40.094Z,66.20
2023-10-06T08:20:13.683Z,65.90
2023-10-06T08:22:47.922Z,65.60
2023-10-06T08:25:21.554Z,65.30
2023-10-06T08:27:52.302Z,65.10
2023-10-06T08:30:22.496Z,65.00
2023-10-06T08:32:54.893Z,64.90
2023-10-06T08:35:24.312Z,64.60
2023-10-06T08:37:55.458Z,64.40
2023-10-06T08:40:25.076Z,64.20
2023-10-06T08:42:57.578Z,63.90
2023-10-06T08:45:29.486Z,63.90
2023-10-06T08:48:04.618Z,63.70
2023-10-06T08:50:34.851Z,63.40
2023-10-06T08:53:11.495Z,63.00
2023-10-06T08:55:40.860Z,62.60
2023-10-06T08:58:10.118Z,62.30
2023-10-06T09:00:39.446Z,62.10
2023-10-06T09:03:09.708Z,61.60
2023-10-06T09:05:40.823Z,61.20
2023-10-06T09:08:16.657Z,60.50
2023-10-06T09:10:55.215Z,60.00
2023-10-06T09:13:24.640Z,59.20
2023-10-06T09:16:13.032Z,58.70
2023-10-06T09:18:42.870Z,58.60
2023-10-06T09:21:15.154Z,58.30
2023-10-06T09:23:44.910Z,57.80
2023-10-06T09:26:26.268Z,57.10
2023-10-06T09:28:57.663Z,56.80
2023-10-06T09:31:40.176Z,60.00
2023-10-06T09:34:10.955Z,59.90
2023-10-06T09:36:45.979Z,59.10
2023-10-06T09:39:35.489Z,57.60
2023-10-06T09:42:09.291Z,57.50
2023-10-06T09:44:42.664Z,56.40
2023-10-06T09:47:13.184Z,56.00
2023-10-06T09:49:42.791Z,53.40
2023-10-06T09:52:13.839Z,52.60
2023-10-06T09:54:44.718Z,51.40
2023-10-06T09:57:15.912Z,48.60
2023-10-06T09:59:45.696Z,48.50
2023-10-06T10:02:17.617Z,48.20
2023-10-06T10:04:47.695Z,47.90
2023-10-06T10:07:18.510Z,47.60
2023-10-06T10:09:48.346Z,47.00
2023-10-06T10:12:38.854Z,45.90
2023-10-06T10:15:46.020Z,45.20
2023-10-06T10:18:36.761Z,44.30
2023-10-06T10:21:13.276Z,44.00
2023-10-06T10:23:45.100Z,45.20
2023-10-06T10:26:29.779Z,45.40
2023-10-06T10:29:14.691Z,45.50
2023-10-06T10:32:01.479Z,44.00
2023-10-06T10:34:36.205Z,43.60
2023-10-06T10:37:07.387Z,42.10
2023-10-06T10:39:52.066Z,42.60
2023-10-06T10:42:40.323Z,42.00
2023-10-06T10:45:32.038Z,42.30
2023-10-06T10:48:06.045Z,42.10
2023-10-06T10:50:53.891Z,41.60
2023-10-06T10:53:23.754Z,41.90
2023-10-06T10:55:53.147Z,41.40
2023-10-06T10:58:58.228Z,42.50
2023-10-06T11:01:43.359Z,42.70
2023-10-06T11:04:36.822Z,43.30
2023-10-06T11:07:17.351Z,43.60
2023-10-06T11:09:49.431Z,44.10
2023-10-06T11:14:52.529Z,45.20
2023-10-06T11:17:24.934Z,44.40
2023-10-06T11:20:15.292Z,43.70
2023-10-06T11:23:02.945Z,43.20
2023-10-06T11:25:40.157Z,43.60
2023-10-06T11:28:10.349Z,43.20
2023-10-06T11:30:44.129Z,43.50
2023-10-06T11:33:15.230Z,43.00
2023-10-06T11:35:46.453Z,43.20
2023-10-06T11:38:17.410Z,43.30
2023-10-06T11:40:47.113Z,43.00
2023-10-06T11:43:19.933Z,43.40
2023-10-06T11:46:01.078Z,42.80
2023-10-06T11:48:35.148Z,43.30
2023-10-06T11:51:10.050Z,43.20
2023-10-06T11:53:41.675Z,43.40
2023-10-06T11:56:20.910Z,44.30
2023-10-06T11:58:50.290Z,44.50
2023-10-06T12:01:38.169Z,43.90
2023-10-06T12:04:33.568Z,43.50
2023-10-06T12:07:02.892Z,43.60
2023-10-06T12:09:32.358Z,43.60
2023-10-06T12:12:02.860Z,43.60
2023-10-06T12:14:34.323Z,43.90
2023-10-06T12:17:04.005Z,43.60
2023-10-06T12:19:34.295Z,44.00
2023-10-06T12:22:03.740Z,43.40
2023-10-06T12:24:32.970Z,44.10
2023-10-06T12:27:02.483Z,44.00
2023-10-06T12:29:32.768Z,42.30
2023-10-06T12:32:05.307Z,41.80
2023-10-06T12:34:35.024Z,41.90
2023-10-06T12:37:04.440Z,42.20
2023-10-06T12:39:36.690Z,42.20
2023-10-06T12:42:06.722Z,42.30
2023-10-06T12:44:41.201Z,42.20
2023-10-06T12:47:13.966Z,42.30
2023-10-06T12:49:45.187Z,42.50
2023-10-06T12:52:14.588Z,43.00
2023-10-06T12:54:45.671Z,43.90
2023-10-06T12:57:15.053Z,43.00
2023-10-06T12:59:44.350Z,42.90
2023-10-06T13:02:13.608Z,42.90
2023-10-06T13:04:43.916Z,42.40
2023-10-06T13:07:13.713Z,43.30
2023-10-06T13:09:42.940Z,42.50
2023-10-06T13:12:12.160Z,43.70
2023-10-06T13:14:43.838Z,44.20
2023-10-06T13:17:13.281Z,44.10
2023-10-06T13:19:42.534Z,44.20
2023-10-06T13:22:11.818Z,42.00
2023-10-06T13:24:41.544Z,38.60
2023-10-06T13:27:11.797Z,31.50
2023-10-06T13:29:41.887Z,28.50
2023-10-06T13:32:12.362Z,26.20
2023-10-06T13:34:43.864Z,24.30
2023-10-06T13:37:15.267Z,22.50
2023-10-06T13:39:48.757Z,22.20
2023-10-06T13:42:18.754Z,23.90
2023-10-06T13:44:51.997Z,26.30
2023-10-06T13:47:22.697Z,28.50
2023-10-06T13:49:55.445Z,29.90
2023-10-06T13:52:24.853Z,31.50
2023-10-06T13:54:55.411Z,32.70
2023-10-06T13:57:24.676Z,33.30
2023-10-06T13:59:53.975Z,33.70
2023-10-06T14:02:24.395Z,34.60
2023-10-06T14:04:53.704Z,35.20
2023-10-06T14:07:23.053Z,35.80
2023-10-06T14:09:52.426Z,36.40
2023-10-06T14:12:24.088Z,36.50
2023-10-06T14:14:53.486Z,36.90
2023-10-06T14:17:29.656Z,37.10
2023-10-06T14:20:00.814Z,37.60
2023-10-06T14:22:35.044Z,37.90
2023-10-06T14:25:04.702Z,38.10
2023-10-06T14:27:33.953Z,38.30
2023-10-06T14:30:05.408Z,38.40
2023-10-06T14:32:43.621Z,38.80
2023-10-06T14:35:25.541Z,39.00
2023-10-06T14:38:14.785Z,38.80
2023-10-06T14:41:12.957Z,38.90
2023-10-06T14:44:22.353Z,39.10
2023-10-06T14:46:53.264Z,39.60
2023-10-06T14:49:27.086Z,40.00
2023-10-06T14:51:59.269Z,40.60
2023-10-06T14:54:34.133Z,40.90
2023-10-06T14:57:04.558Z,41.30
2023-10-06T14:59:35.172Z,42.30
2023-10-06T15:02:08.748Z,42.00
2023-10-06T15:04:40.475Z,42.50
2023-10-06T15:07:12.194Z,42.90
2023-10-06T15:09:41.644Z,43.20
2023-10-06T15:12:10.958Z,43.40
2023-10-06T15:14:40.432Z,43.70
2023-10-06T15:17:12.505Z,43.90
2023-10-06T15:19:42.110Z,44.00
2023-10-06T15:22:11.466Z,44.90
2023-10-06T15:24:41.356Z,44.50
2023-10-06T15:27:11.028Z,44.80
2023-10-06T15:29:42.949Z,45.20
2023-10-06T15:32:13.279Z,45.60
2023-10-06T15:34:42.920Z,46.10
2023-10-06T15:37:12.129Z,46.80
2023-10-06T15:39:41.324Z,47.30
2023-10-06T15:42:11.134Z,47.70
2023-10-06T15:44:40.609Z,48.30
2023-10-06T15:47:11.217Z,48.60
2023-10-06T15:49:40.499Z,49.10
2023-10-06T15:52:09.785Z,49.60
2023-10-06T15:54:41.472Z,50.10
2023-10-06T15:57:10.879Z,51.00
2023-10-06T15:59:40.251Z,52.30
2023-10-06T16:02:11.192Z,53.60
2023-10-06T16:04:40.768Z,54.60
2023-10-06T16:07:11.634Z,55.50
2023-10-06T16:09:41.012Z,56.00
2023-10-06T16:12:12.939Z,56.70
2023-10-06T16:14:42.239Z,56.70
2023-10-06T16:17:11.595Z,56.90
2023-10-06T16:19:41.800Z,57.30
2023-10-06T16:22:11.090Z,57.60
2023-10-06T16:24:40.347Z,57.80
2023-10-06T16:27:09.560Z,57.90
2023-10-06T16:29:38.931Z,58.30
2023-10-06T16:32:09.199Z,58.60
2023-10-06T16:34:40.047Z,58.90
2023-10-06T16:37:09.772Z,59.00
2023-10-06T16:39:39.045Z,59.20
2023-10-06T16:42:09.597Z,59.40
2023-10-06T16:44:38.965Z,59.70
2023-10-06T16:47:08.481Z,60.10
2023-10-06T16:49:37.668Z,60.60
2023-10-06T16:52:07.195Z,61.30
2023-10-06T16:54:36.463Z,61.90
2023-10-06T16:57:05.728Z,62.90
2023-10-06T16:59:38.212Z,62.50
2023-10-06T17:02:08.169Z,62.50
2023-10-06T17:04:39.462Z,62.80
2023-10-06T17:07:08.998Z,63.20
2023-10-06T17:09:38.309Z,63.70
2023-10-06T17:12:11.098Z,64.00
2023-10-06T17:14:41.319Z,64.20
2023-10-06T17:17:12.623Z,64.70
2023-10-06T17:19:42.426Z,65.20
2023-10-06T17:22:12.828Z,65.80
2023-10-06T17:24:43.157Z,66.20
2023-10-06T17:27:13.219Z,66.50
2023-10-06T17:29:42.906Z,66.80
2023-10-06T17:32:12.558Z,67.00
2023-10-06T17:34:43.638Z,67.30
2023-10-06T17:39:51.397Z,67.80
2023-10-06T17:42:20.932Z,68.20
2023-10-06T17:44:50.823Z,68.70
2023-10-06T17:49:52.955Z,68.90
2023-10-06T17:52:22.951Z,69.30
2023-10-06T17:54:55.010Z,69.60
2023-10-06T17:57:25.220Z,70.10
2023-10-06T17:59:55.289Z,70.50
2023-10-06T18:02:26.140Z,71.10
2023-10-06T18:04:56.158Z,71.40
2023-10-06T18:07:26.011Z,71.80
2023-10-06T18:09:55.915Z,72.10
2023-10-06T18:12:26.086Z,72.40
2023-10-06T18:14:56.028Z,72.60
2023-10-06T18:17:28.574Z,72.80
2023-10-06T18:19:58.576Z,72.90
2023-10-06T18:22:28.990Z,73.20
2023-10-06T18:24:58.865Z,73.40
2023-10-06T18:27:30.031Z,73.60
2023-10-06T18:29:59.688Z,73.90
2023-10-06T18:32:31.099Z,74.30
2023-10-06T18:35:01.629Z,74.60
2023-10-06T18:37:32.247Z,74.90
2023-10-06T18:40:02.243Z,75.20
2023-10-06T18:42:32.351Z,76.00
2023-10-06T18:45:02.671Z,76.00
2023-10-06T18:47:33.361Z,76.20
2023-10-06T18:50:03.551Z,76.50
2023-10-06T18:52:33.584Z,76.60
2023-10-06T18:55:04.740Z,76.70
2023-10-06T18:57:35.236Z,76.70
2023-10-06T19:00:10.855Z,76.90
2023-10-06T19:02:42.347Z,77.00
2023-10-06T19:05:12.645Z,77.10
2023-10-06T19:07:44.816Z,77.30
2023-10-06T19:10:15.928Z,77.40
2023-10-06T19:12:46.883Z,77.60
2023-10-06T19:15:16.743Z,77.70
2023-10-06T19:17:46.662Z,77.90
2023-10-06T19:20:16.297Z,78.10
2023-10-06T19:22:48.090Z,78.20
2023-10-06T19:25:19.281Z,78.50
2023-10-06T19:27:51.898Z,78.70
2023-10-06T19:30:23.018Z,78.90
2023-10-06T19:32:52.761Z,78.90
2023-10-06T19:35:22.158Z,79.10
2023-10-06T19:37:52.175Z,79.30
2023-10-06T19:40:21.699Z,79.60
2023-10-06T19:42:52.542Z,79.70
2023-10-06T19:45:22.300Z,79.90
2023-10-06T19:47:55.214Z,80.10
2023-10-06T19:50:25.500Z,80.20
2023-10-06T19:52:55.249Z,80.40
2023-10-06T19:55:24.746Z,80.50
2023-10-06T19:57:54.404Z,80.50
2023-10-06T20:00:29.282Z,80.50
2023-10-06T20:02:58.682Z,80.60
2023-10-06T20:05:28.252Z,80.80
2023-10-06T20:07:58.261Z,81.00
2023-10-06T20:10:31.514Z,81.10
2023-10-06T20:13:02.545Z,81.40
2023-10-06T20:15:33.788Z,81.50
2023-10-06T20:18:03.685Z,81.60
2023-10-06T20:20:33.080Z,81.70
2023-10-06T20:23:02.380Z,81.90
2023-10-06T20:25:32.208Z,82.00
2023-10-06T20:28:04.110Z,82.20
2023-10-06T20:30:33.969Z,82.30
2023-10-06T20:33:03.785Z,82.50
2023-10-06T20:35:35.246Z,82.60
2023-10-06T20:38:04.680Z,82.60
2023-10-06T20:40:35.461Z,83.40
2023-10-06T20:43:07.748Z,82.90
2023-10-06T20:45:38.333Z,83.70
2023-10-06T20:48:07.848Z,83.10
2023-10-06T20:50:40.004Z,83.30
2023-10-06T20:53:10.040Z,83.40
2023-10-06T20:55:39.423Z,83.50
2023-10-06T20:58:09.032Z,83.60
2023-10-06T21:00:38.869Z,83.80
2023-10-06T21:03:09.742Z,83.90
2023-10-06T21:05:40.246Z,84.00
2023-10-06T21:08:10.599Z,84.20
2023-10-06T21:10:39.872Z,84.10
2023-10-06T21:13:09.071Z,84.20
2023-10-06T21:15:38.314Z,84.30
2023-10-06T21:18:08.308Z,84.30
2023-10-06T21:20:37.587Z,84.40
2023-10-06T21:23:08.717Z,84.60
2023-10-06T21:25:38.928Z,84.50
2023-10-06T21:28:08.202Z,84.60
2023-10-06T21:30:37.949Z,84.80
2023-10-06T21:33:07.804Z,85.00
2023-10-06T21:35:37.087Z,85.20
2023-10-06T21:38:06.289Z,85.40
2023-10-06T21:40:35.510Z,85.50
2023-10-06T21:43:05.834Z,85.60
2023-10-06T21:45:40.668Z,85.70
2023-10-06T21:48:10.014Z,85.70
2023-10-06T21:50:46.786Z,85.70
2023-10-06T21:53:16.882Z,85.80
2023-10-06T21:55:46.285Z,85.90
2023-10-06T21:58:16.520Z,85.90
2023-10-06T22:00:47.008Z,86.10
2023-10-06T22:03:16.503Z,86.00
2023-10-06T22:05:45.752Z,86.10
2023-10-06T22:08:15.002Z,86.00
2023-10-06T22:10:44.826Z,86.10
2023-10-06T22:13:14.043Z,86.20
2023-10-06T22:15:44.326Z,86.20
2023-10-06T22:18:14.509Z,86.20
2023-10-06T22:20:43.841Z,86.20
2023-10-06T22:23:13.116Z,86.20
2023-10-06T22:25:42.348Z,86.20
2023-10-06T22:28:14.050Z,86.30
2023-10-06T22:30:43.295Z,86.30
2023-10-06T22:33:13.132Z,87.00
2023-10-06T22:35:42.436Z,86.50
2023-10-06T22:38:11.858Z,86.60
2023-10-06T22:40:42.250Z,86.50
2023-10-06T22:43:12.240Z,86.70
2023-10-06T22:45:41.443Z,86.80
2023-10-06T22:48:13.213Z,86.80
2023-10-06T22:50:42.516Z,86.90
2023-10-06T22:53:12.985Z,87.00
2023-10-06T22:55:42.266Z,87.10
2023-10-06T22:58:14.231Z,87.10
2023-10-06T23:00:43.602Z,87.10
2023-10-06T23:03:12.838Z,87.10
2023-10-06T23:05:42.086Z,87.10
2023-10-06T23:08:12.389Z,87.20
2023-10-06T23:10:42.127Z,87.20
2023-10-06T23:13:11.399Z,87.20
2023-10-06T23:15:40.837Z,87.30
2023-10-06T23:18:12.584Z,87.30
2023-10-06T23:20:44.802Z,87.40
2023-10-06T23:23:14.101Z,87.40
2023-10-06T23:25:50.957Z,87.40
2023-10-06T23:28:20.278Z,87.40
2023-10-06T23:30:49.499Z,87.30
2023-10-06T23:33:18.716Z,87.40
2023-10-06T23:35:49.315Z,87.50
2023-10-06T23:38:18.524Z,87.50
2023-10-06T23:40:49.073Z,87.40
2023-10-06T23:43:18.399Z,87.40
2023-10-06T23:45:48.446Z,87.40
2023-10-06T23:48:18.452Z,87.30
2023-10-06T23:50:53.769Z,87.30
2023-10-06T23:53:28.452Z,87.40
2023-10-06T23:56:02.450Z,87.50
2023-10-06T23:58:34.631Z,87.50
